Terminal Aerodrome Forecast
Issued by NWS Cleveland, OH

Home | Current Version | Previous Version | Text Only | Print | Product List | Glossary Off
Versions: 1 2 3 4 5 6 7 8 9 10 11 12 13 14

216
FTUS41 KCLE 052320
TAFYNG
TAF
KYNG 052320Z 0600/0624 20005KT P6SM SCT040
     FM060500 20006KT P6SM OVC040=

USA.gov is the U.S. government's official web portal to all federal, state and local government web resources and services.